Duncanville, TX (75116)

2:38 PM CST on January 16, 2017 (GMT -0600)
Irwin Keasler Red Bird North | | Change Station
Active Advisory: Flood Warning

Elev 732 ft 32.67 °N, 96.92 °W | Updated 3 minutes ago

Clear
Clear
67.3 °F
Feels Like 67.3 °F
N
5.5
Wind Variable Wind from NNW
Gusts 5.5 mph

Today
High -- | Low -- °F
--% Chance of Precip.
Yesterday
High -- | Low -- °F
Precip. -- in
Pressure 29.96 in
Visibility 10.0 miles
Clouds Clear
Dew Point 56 °F
Humidity 67%
Rainfall 0.05 in
Snow Depth Not available.
7:29 AM 5:45 PM
Waning Gibbous, 78% visible
METAR KRBD 161953Z 30010KT 10SM CLR 18/09 A2997 RMK AO2 SLP145 T01830089 $
Pressure 29.96 in
Visibility 10.0 miles
Clouds Clear
Dew Point 56 °F
Humidity 67%
Rainfall 0.05 in
Snow Depth Not available.
7:29 AM 5:45 PM
Waning Gibbous, 78% visible
METAR KRBD 161953Z 30010KT 10SM CLR 18/09 A2997 RMK AO2 SLP145 T01830089 $

Get Your Daily Forecast Email!

Thanks for signing up!

Be on the lookout for a verification email in your inbox.

You'll start receiving the daily forecast at 8 AM.

×

10-Day Weather Forecast

Almanac

Astronomy

Jan. 16, 2017 Rise Set
Actual Time
Civil Twilight
Nautical Twilight
Astronomical Twilight
Moon
Length of Visible Light
Length of Day
Tomorrow will be .
, % of the Moon is Illuminated

Today's Extremes

State Highs State Lows

Community

WunderPhotos

Upload Photos

1,962,540 photos uploaded!

WunderBlog® & News

Nearby

Air Quality

  Air Quality AQ Index Pollutant
Not available.

Snow Depth

Station Depth Elevation

Earthquake Activity

City Distance Mag. Time & Date
Minimum magnitude displayed is 2.5.

Coastal Water Temperatures

Place Temperature

Stations

Nearby Weather Stations

Station Location Temp. Windchill Dew Point Humidity Wind Precip. Elev Updated Type
                   

Watches & Warnings

Flood Warning
Issued: 1:42 PM CST Jan. 16, 2017 – National Weather Service

The Flood Warning continues for
the Trinity River at Dallas.
* At 0100 PM Monday the stage was 33.80 feet.
* Flood stage is 30 feet.
* Minor flooding is occurring and minor flooding is forecast.
* Forecast... the river will continue rising to a crest near 34 feet
by Monday evening. The river should fall below flood stage Tuesday
morning.


Lat... Lon 3275 9693 3281 9693 3283 9683 3275 9671
      3269 9676 3278 9687